Time;durP1;ratioP1;P1;durP2;ratioP2;P2;SDS_P1;SDS_P2;PMS_P1;PMS_P2;Temp;Humidity;BMP_temperature;BMP_pressure;BME280_temperature;BME280_humidity;BME280_pressure;Samples;Min_cycle;Max_cycle;Signal;HPM_P1;HPM_P2
2022/02/15 00:01:02;;;;;;;46.67;24.58;;;;;;;2.84;75.14;100409.91;5073639;28;20025;-51
2022/02/15 00:03:28;;;;;;;47.25;26.60;;;;;;;2.72;75.77;100413.59;5073709;28;20035;-50
2022/02/15 00:05:53;;;;;;;52.08;25.95;;;;;;;2.87;75.21;100400.91;5073521;28;20052;-51
2022/02/15 00:08:18;;;;;;;57.40;25.83;;;;;;;2.99;74.79;100401.59;5073896;28;20036;-51
2022/02/15 00:10:47;;;;;;;52.65;27.15;;;;;;;2.96;74.64;100394.81;5073847;28;20415;-48
2022/02/15 00:13:12;;;;;;;51.80;26.88;;;;;;;3.07;74.66;100393.84;5073477;28;20099;-49
2022/02/15 00:15:38;;;;;;;48.75;26.42;;;;;;;3.16;74.49;100394.81;5073664;28;20481;-51
2022/02/15 00:18:03;;;;;;;50.05;25.98;;;;;;;3.01;74.00;100391.75;5074065;28;20024;-48
2022/02/15 00:20:29;;;;;;;50.22;25.20;;;;;;;2.78;74.85;100388.56;5072566;28;20610;-48
2022/02/15 00:22:54;;;;;;;48.08;25.73;;;;;;;2.78;75.71;100385.94;5073811;28;20396;-47
2022/02/15 00:25:20;;;;;;;49.45;26.00;;;;;;;2.80;75.37;100394.53;5073961;28;20066;-48
2022/02/15 00:27:46;;;;;;;47.28;26.00;;;;;;;2.70;75.21;100389.25;5073782;28;20214;-51
2022/02/15 00:30:12;;;;;;;52.13;26.05;;;;;;;2.48;75.96;100395.59;5073501;28;20031;-48
2022/02/15 00:32:37;;;;;;;53.78;26.50;;;;;;;2.78;74.91;100401.72;5074080;28;20024;-51
2022/02/15 00:35:03;;;;;;;52.55;26.17;;;;;;;2.84;75.37;100393.31;5073667;28;20027;-49
2022/02/15 00:37:28;;;;;;;51.05;25.95;;;;;;;2.60;75.52;100381.38;5073703;28;20054;-49
2022/02/15 00:39:54;;;;;;;52.83;25.50;;;;;;;2.60;75.22;100388.44;5073408;28;20020;-48
2022/02/15 00:42:19;;;;;;;51.95;27.55;;;;;;;2.55;75.69;100386.19;5073538;28;20577;-49
2022/02/15 00:44:45;;;;;;;50.78;26.08;;;;;;;2.49;76.09;100382.31;5073414;28;20103;-49
2022/02/15 00:47:10;;;;;;;54.53;26.88;;;;;;;2.36;76.42;100376.47;5071996;28;20503;-52
2022/02/15 00:49:36;;;;;;;52.10;26.92;;;;;;;2.24;77.11;100375.75;5073545;28;20388;-49
2022/02/15 00:52:01;;;;;;;50.63;26.05;;;;;;;2.24;77.17;100383.63;5073761;28;20051;-50
2022/02/15 00:54:27;;;;;;;50.50;27.27;;;;;;;2.20;76.51;100378.78;5073318;28;20339;-48
2022/02/15 00:56:52;;;;;;;55.15;27.98;;;;;;;2.28;77.34;100381.56;5072004;28;20406;-47
2022/02/15 00:59:18;;;;;;;56.22;26.35;;;;;;;2.40;76.87;100380.50;5072769;28;20089;-48
2022/02/15 01:01:43;;;;;;;58.17;27.85;;;;;;;2.37;76.23;100372.88;5073075;28;20058;-48
2022/02/15 01:04:09;;;;;;;49.83;27.60;;;;;;;2.21;76.46;100376.03;5073341;28;20032;-48
2022/02/15 01:06:36;;;;;;;56.40;27.27;;;;;;;2.28;76.57;100377.16;5073100;28;20102;-48
2022/02/15 01:09:01;;;;;;;57.38;29.55;;;;;;;2.18;76.99;100380.72;5073044;28;20051;-50
2022/02/15 01:11:27;;;;;;;61.42;29.88;;;;;;;2.21;76.99;100381.28;5073086;28;20633;-48
2022/02/15 01:13:52;;;;;;;56.45;26.98;;;;;;;2.11;76.65;100372.53;5073250;28;20122;-51
2022/02/15 01:16:18;;;;;;;60.05;29.02;;;;;;;2.16;76.83;100378.22;5072769;28;20028;-49
2022/02/15 01:18:43;;;;;;;55.75;27.98;;;;;;;2.05;77.59;100367.81;5072909;28;20016;-49
2022/02/15 01:21:09;;;;;;;57.80;29.35;;;;;;;2.22;76.59;100371.63;5072843;28;20427;-49
2022/02/15 01:23:35;;;;;;;57.97;28.05;;;;;;;2.06;77.95;100365.06;5072775;28;20024;-48
2022/02/15 01:26:00;;;;;;;60.50;27.83;;;;;;;2.05;77.23;100365.19;5072780;28;20029;-48
2022/02/15 01:28:25;;;;;;;55.50;28.67;;;;;;;2.16;77.76;100367.72;5072829;28;20025;-51
2022/02/15 01:30:51;;;;;;;56.00;28.55;;;;;;;2.04;77.68;100360.94;5071317;28;20025;-48
2022/02/15 01:33:16;;;;;;;52.30;25.98;;;;;;;2.11;77.96;100365.50;5072358;28;20025;-49
2022/02/15 01:35:42;;;;;;;55.00;27.00;;;;;;;2.03;77.88;100362.69;5072825;28;20044;-48
2022/02/15 01:38:08;;;;;;;48.15;25.75;;;;;;;2.01;78.64;100363.81;5072489;28;20468;-48
2022/02/15 01:40:34;;;;;;;130.18;57.33;;;;;;;2.08;78.54;100360.50;5072202;28;20013;-49
2022/02/15 01:42:59;;;;;;;119.07;56.40;;;;;;;2.03;78.16;100357.44;5072608;28;20048;-48
2022/02/15 01:45:25;;;;;;;50.75;26.48;;;;;;;2.10;77.71;100371.72;5072457;28;20521;-37
2022/02/15 01:47:50;;;;;;;51.33;25.05;;;;;;;2.20;78.00;100360.41;5072846;28;20028;-37
2022/02/15 01:50:16;;;;;;;52.15;25.92;;;;;;;2.04;77.71;100358.31;5071794;28;20488;-37
2022/02/15 01:52:42;;;;;;;47.88;24.55;;;;;;;1.90;77.84;100352.41;5072191;28;20107;-38
2022/02/15 01:55:09;;;;;;;44.22;23.90;;;;;;;1.90;78.86;100351.59;5071877;28;20032;-37
2022/02/15 01:57:35;;;;;;;49.03;23.85;;;;;;;2.03;78.32;100352.19;5072643;28;20583;-37
2022/02/15 02:00:00;;;;;;;42.58;22.55;;;;;;;1.80;79.53;100354.19;5072141;28;20179;-38
2022/02/15 02:02:26;;;;;;;43.92;22.10;;;;;;;1.83;80.20;100359.19;5072417;28;20052;-37
2022/02/15 02:07:36;;;;;;;39.42;20.27;;;;;;;1.72;80.49;100365.34;5072272;28;20821;-36
2022/02/15 02:10:03;;;;;;;38.97;20.83;;;;;;;1.79;80.31;100364.81;5071086;28;20032;-37
2022/02/15 02:12:29;;;;;;;36.10;20.73;;;;;;;1.95;79.39;100373.03;5071918;28;20043;-37
2022/02/15 02:15:04;;;;;;;44.80;22.83;;;;;;;1.93;78.08;100362.66;5071783;28;20028;-37
2022/02/15 02:17:29;;;;;;;47.22;24.27;;;;;;;1.89;77.94;100374.41;5072079;28;20031;-37
2022/02/15 02:19:55;;;;;;;46.13;25.50;;;;;;;1.83;78.57;100367.06;5071755;28;20025;-37
2022/02/15 02:22:22;;;;;;;42.05;23.65;;;;;;;1.93;77.60;100359.22;5071892;28;20119;-37
2022/02/15 02:24:48;;;;;;;51.67;24.00;;;;;;;1.73;79.11;100356.53;5071752;28;20107;-37
2022/02/15 02:27:15;;;;;;;46.40;23.90;;;;;;;1.69;79.06;100354.28;5072035;28;20432;-37
2022/02/15 02:29:41;;;;;;;49.75;25.73;;;;;;;1.75;79.81;100364.25;5070583;28;20043;-37
2022/02/15 02:32:07;;;;;;;40.90;22.42;;;;;;;1.76;78.66;100353.63;5071879;28;20468;-37
2022/02/15 02:34:33;;;;;;;46.30;24.13;;;;;;;1.83;79.41;100356.56;5071531;28;20025;-37
2022/02/15 02:36:59;;;;;;;44.00;23.65;;;;;;;1.97;78.08;100351.91;5071506;28;20028;-37
2022/02/15 02:39:24;;;;;;;45.03;22.88;;;;;;;1.78;79.10;100348.25;5070770;28;20176;-37
2022/02/15 02:41:50;;;;;;;44.58;23.27;;;;;;;1.68;78.89;100356.06;5071464;28;20032;-36
2022/02/15 02:44:15;;;;;;;42.90;22.08;;;;;;;1.68;78.83;100353.44;5071189;28;20032;-37
2022/02/15 02:46:41;;;;;;;56.35;24.42;;;;;;;1.68;78.74;100357.88;5070854;28;20031;-37
2022/02/15 02:49:06;;;;;;;45.80;22.67;;;;;;;1.57;79.21;100356.16;5070983;28;20020;-37
2022/02/15 02:51:32;;;;;;;49.72;22.77;;;;;;;1.71;78.79;100350.56;5070862;28;20028;-37
2022/02/15 02:53:57;;;;;;;40.85;22.30;;;;;;;1.68;79.80;100348.19;5070480;28;20032;-37
2022/02/15 02:56:23;;;;;;;50.30;23.08;;;;;;;1.41;80.23;100356.63;5070807;28;20074;-37
2022/02/15 02:58:48;;;;;;;44.22;22.58;;;;;;;1.59;80.34;100353.41;5071418;28;20078;-37
2022/02/15 03:01:13;;;;;;;42.15;21.67;;;;;;;1.65;80.28;100356.31;5071612;28;20033;-37
2022/02/15 03:03:39;;;;;;;37.33;19.95;;;;;;;1.65;80.25;100353.69;5071541;28;20085;-37
2022/02/15 03:06:06;;;;;;;38.72;20.58;;;;;;;1.85;79.05;100348.56;5071364;28;20063;-37
2022/02/15 03:08:31;;;;;;;44.58;21.67;;;;;;;1.64;79.34;100354.69;5071263;28;20024;-37
2022/02/15 03:10:58;;;;;;;42.70;22.15;;;;;;;1.62;79.92;100353.13;5071238;28;20031;-37
2022/02/15 03:13:24;;;;;;;38.35;20.48;;;;;;;1.49;80.67;100362.06;5070136;28;20024;-36
2022/02/15 03:15:50;;;;;;;39.10;21.23;;;;;;;1.65;79.82;100361.56;5071085;28;20396;-37
2022/02/15 03:18:15;;;;;;;45.65;22.95;;;;;;;1.53;80.05;100368.69;5071221;28;20025;-37
2022/02/15 03:20:41;;;;;;;48.60;22.75;;;;;;;1.79;80.36;100373.53;5071138;28;20032;-37
2022/02/15 03:23:06;;;;;;;42.40;22.77;;;;;;;1.63;79.56;100371.38;5071264;28;20035;-37
2022/02/15 03:25:32;;;;;;;41.35;22.80;;;;;;;1.55;80.22;100373.81;5071495;28;20031;-37
2022/02/15 03:27:57;;;;;;;46.90;23.67;;;;;;;1.67;78.81;100375.38;5071392;28;20050;-37
2022/02/15 03:30:23;;;;;;;49.50;23.95;;;;;;;1.32;79.54;100373.97;5071301;28;20051;-37
2022/02/15 03:32:48;;;;;;;45.80;24.30;;;;;;;1.21;80.27;100360.91;5071753;28;20024;-37
2022/02/15 03:35:14;;;;;;;47.72;24.58;;;;;;;1.25;80.48;100364.94;5071544;28;20528;-37
2022/02/15 03:37:40;;;;;;;52.90;25.45;;;;;;;1.13;80.44;100372.03;5071397;28;20024;-37
2022/02/15 03:40:06;;;;;;;48.75;23.65;;;;;;;1.17;81.83;100365.56;5071415;28;20086;-38
2022/02/15 03:45:16;;;;;;;49.28;24.83;;;;;;;1.45;79.15;100358.03;5071396;28;20514;-38
2022/02/15 03:47:41;;;;;;;52.83;25.58;;;;;;;1.07;80.23;100362.06;5071015;28;20024;-36
2022/02/15 03:50:07;;;;;;;53.67;24.95;;;;;;;1.05;80.41;100357.88;5071044;28;20473;-38
2022/02/15 03:52:33;;;;;;;48.58;25.80;;;;;;;0.98;80.58;100365.44;5071433;28;20039;-36
2022/02/15 03:54:58;;;;;;;50.90;25.05;;;;;;;0.87;80.80;100371.56;5070768;28;20033;-38
2022/02/15 03:57:23;;;;;;;54.58;26.30;;;;;;;1.03;80.30;100371.16;5070606;28;20020;-37
2022/02/15 03:59:49;;;;;;;52.53;24.55;;;;;;;1.01;80.65;100370.44;5071470;28;20054;-38
2022/02/15 04:02:14;;;;;;;49.45;25.58;;;;;;;1.01;80.47;100366.97;5071032;28;20514;-38
2022/02/15 04:04:40;;;;;;;46.83;24.27;;;;;;;1.01;80.58;100380.94;5071060;28;20086;-37
2022/02/15 04:07:05;;;;;;;49.92;25.23;;;;;;;0.90;81.26;100387.03;5071221;28;20124;-38
2022/02/15 04:09:31;;;;;;;49.28;23.85;;;;;;;1.05;80.30;100386.72;5071337;28;20032;-41
2022/02/15 04:11:56;;;;;;;52.55;24.25;;;;;;;1.14;80.68;100384.19;5069907;28;20032;-36
2022/02/15 04:14:22;;;;;;;48.42;24.55;;;;;;;1.01;81.81;100382.69;5071097;28;20025;-36
2022/02/15 04:16:47;;;;;;;45.30;24.13;;;;;;;1.05;80.79;100381.47;5071151;28;20043;-38
2022/02/15 04:19:13;;;;;;;44.95;23.27;;;;;;;1.08;81.68;100386.47;5070808;28;20036;-37
2022/02/15 04:21:38;;;;;;;42.90;23.50;;;;;;;0.99;81.18;100382.84;5071132;28;20496;-37
2022/02/15 04:24:04;;;;;;;48.25;23.80;;;;;;;0.92;81.14;100387.75;5072474;28;20378;-37
2022/02/15 04:26:30;;;;;;;45.50;23.80;;;;;;;1.13;80.58;100392.19;5074934;28;20051;-37
2022/02/15 04:28:55;;;;;;;50.05;23.85;;;;;;;1.13;80.98;100384.31;5074744;28;20472;-37
2022/02/15 04:31:20;;;;;;;46.47;23.25;;;;;;;0.86;81.68;100385.63;5075014;28;20024;-37
2022/02/15 04:33:46;;;;;;;46.40;23.58;;;;;;;0.92;81.70;100392.97;5074613;28;20020;-37
2022/02/15 04:36:11;;;;;;;46.90;23.17;;;;;;;0.85;81.76;100391.00;5074443;28;20086;-38
2022/02/15 04:38:37;;;;;;;43.67;22.88;;;;;;;0.79;82.71;100397.56;5074514;28;20028;-37
2022/02/15 04:41:03;;;;;;;59.13;30.50;;;;;;;0.76;82.87;100393.41;5074654;28;20032;-36
2022/02/15 04:43:28;;;;;;;116.20;47.85;;;;;;;0.81;82.04;100390.41;5074241;28;20097;-37
2022/02/15 04:45:54;;;;;;;73.88;33.97;;;;;;;0.80;82.72;100385.28;5074311;28;20024;-37
2022/02/15 04:48:20;;;;;;;60.55;29.42;;;;;;;0.84;82.29;100392.78;5074161;28;20029;-38
2022/02/15 04:50:45;;;;;;;43.30;21.92;;;;;;;1.06;81.79;100398.88;5074204;28;20086;-37
2022/02/15 04:53:11;;;;;;;41.75;21.55;;;;;;;0.96;82.21;100409.28;5073896;28;20039;-37
2022/02/15 04:55:36;;;;;;;43.40;20.95;;;;;;;0.90;82.46;100415.03;5074146;28;20028;-37
2022/02/15 04:58:02;;;;;;;41.55;20.98;;;;;;;0.91;82.33;100407.03;5074059;28;20028;-37
2022/02/15 05:00:27;;;;;;;42.33;21.45;;;;;;;0.90;82.25;100417.66;5074040;28;20058;-37
2022/02/15 05:02:52;;;;;;;43.33;23.42;;;;;;;0.86;81.35;100424.13;5073651;28;20469;-37
2022/02/15 05:05:18;;;;;;;39.70;22.40;;;;;;;1.04;82.01;100429.63;5073299;28;20369;-37
2022/02/15 05:07:44;;;;;;;43.47;21.83;;;;;;;0.89;82.11;100434.31;5073932;28;20024;-37
2022/02/15 05:10:09;;;;;;;41.55;20.63;;;;;;;0.76;81.81;100439.72;5074014;28;20020;-37
2022/02/15 05:12:37;;;;;;;42.13;22.48;;;;;;;0.88;81.60;100435.31;5073513;28;20451;-37
2022/02/15 05:15:09;;;;;;;44.72;21.58;;;;;;;1.00;81.13;100436.91;5073748;28;20161;-37
2022/02/15 05:17:35;;;;;;;45.38;21.92;;;;;;;0.90;81.97;100422.91;5073618;28;20028;-37
2022/02/15 05:20:01;;;;;;;45.28;22.27;;;;;;;1.03;81.38;100435.81;5073654;28;20453;-37
2022/02/15 05:22:26;;;;;;;42.25;21.85;;;;;;;1.15;80.44;100434.84;5073348;28;20078;-37
2022/02/15 05:24:52;;;;;;;45.03;22.60;;;;;;;1.44;79.08;100435.03;5073151;28;20396;-38
2022/02/15 05:27:17;;;;;;;46.90;22.98;;;;;;;1.35;78.99;100438.44;5073121;28;20028;-36
2022/02/15 05:29:43;;;;;;;46.38;23.27;;;;;;;1.38;78.85;100430.31;5072874;28;20388;-37
2022/02/15 05:32:09;;;;;;;46.13;21.55;;;;;;;1.22;78.28;100435.16;5072516;28;20074;-38
2022/02/15 05:34:35;;;;;;;55.00;26.25;;;;;;;1.10;79.87;100435.19;5054502;28;20477;-37
2022/02/15 05:37:00;;;;;;;106.85;45.75;;;;;;;1.25;79.79;100448.84;5071424;28;20039;-38
2022/02/15 05:39:26;;;;;;;50.88;24.77;;;;;;;1.43;78.85;100443.88;5072399;28;20028;-37
2022/02/15 05:41:51;;;;;;;46.88;22.48;;;;;;;1.70;76.79;100453.03;5071969;28;20028;-38
2022/02/15 05:44:16;;;;;;;42.30;22.55;;;;;;;1.83;76.41;100460.69;5072019;28;20024;-37
2022/02/15 05:46:42;;;;;;;43.22;23.30;;;;;;;1.76;77.34;100463.84;5071553;28;20036;-37
2022/02/15 05:49:07;;;;;;;43.50;22.38;;;;;;;1.90;77.28;100465.28;5071463;28;20485;-37
2022/02/15 05:51:33;;;;;;;45.97;21.95;;;;;;;2.09;76.29;100467.19;5071991;28;20031;-37
2022/02/15 05:53:58;;;;;;;40.90;21.75;;;;;;;2.22;75.84;100468.78;5072225;28;20028;-38
2022/02/15 05:56:24;;;;;;;40.53;22.85;;;;;;;2.32;76.25;100472.28;5072283;28;20031;-36
2022/02/15 05:58:49;;;;;;;90.55;44.55;;;;;;;2.53;75.19;100473.06;5071586;28;20115;-37
2022/02/15 06:01:15;;;;;;;66.85;37.13;;;;;;;2.99;73.46;100476.06;5071662;28;20116;-38
2022/02/15 06:06:25;;;;;;;72.93;34.75;;;;;;;3.01;73.31;100463.63;5071738;28;20056;-38
2022/02/15 06:08:51;;;;;;;69.90;32.63;;;;;;;3.12;75.06;100465.25;5072400;28;20032;-38
2022/02/15 06:11:17;;;;;;;44.30;23.70;;;;;;;3.65;73.55;100466.63;5071996;28;20028;-38
2022/02/15 06:13:42;;;;;;;39.55;21.00;;;;;;;3.76;72.63;100474.38;5071980;28;20440;-38
2022/02/15 06:16:08;;;;;;;39.33;20.67;;;;;;;4.05;72.03;100473.47;5055868;28;20419;-39
2022/02/15 06:18:33;;;;;;;38.95;19.77;;;;;;;4.04;71.78;100477.09;5059242;28;20048;-38
2022/02/15 06:20:59;;;;;;;33.45;19.05;;;;;;;4.10;71.43;100479.16;5070233;28;20033;-38
2022/02/15 06:23:25;;;;;;;40.65;20.80;;;;;;;4.23;71.74;100469.13;5070687;28;20497;-38
2022/02/15 06:25:50;;;;;;;42.65;21.85;;;;;;;4.55;70.31;100459.13;5070830;28;20028;-38
2022/02/15 06:28:16;;;;;;;40.53;21.77;;;;;;;4.65;69.83;100466.03;5070522;28;20025;-38
2022/02/15 06:30:41;;;;;;;36.08;20.52;;;;;;;4.83;68.56;100457.31;5070275;28;20062;-38
2022/02/15 06:33:07;;;;;;;55.72;30.60;;;;;;;5.04;67.16;100455.22;5070622;28;20020;-37
2022/02/15 06:35:32;;;;;;;105.43;52.85;;;;;;;4.91;67.75;100452.09;5071013;28;20024;-38
2022/02/15 06:37:57;;;;;;;37.17;20.55;;;;;;;4.83;67.73;100467.84;5071175;28;20029;-37
2022/02/15 06:40:23;;;;;;;41.25;21.52;;;;;;;4.90;66.85;100468.94;5070319;28;20484;-39
2022/02/15 06:42:49;;;;;;;40.72;21.02;;;;;;;5.02;65.96;100462.44;5069902;28;20025;-38
2022/02/15 06:45:14;;;;;;;37.15;20.88;;;;;;;4.89;66.46;100461.97;5070607;28;20074;-38
2022/02/15 06:47:40;;;;;;;38.63;20.63;;;;;;;4.97;66.14;100455.97;5070234;28;20146;-50
2022/02/15 06:50:06;;;;;;;35.80;20.55;;;;;;;5.04;65.72;100462.31;5070495;28;20020;-49
2022/02/15 06:52:31;;;;;;;39.72;21.40;;;;;;;5.28;65.08;100456.44;5070379;28;20027;-52
2022/02/15 06:54:57;;;;;;;38.67;21.38;;;;;;;5.25;64.82;100464.63;5069187;28;20707;-49
2022/02/15 06:57:22;;;;;;;36.40;22.50;;;;;;;5.30;64.27;100472.94;5070513;28;20024;-50
2022/02/15 06:59:49;;;;;;;37.53;21.90;;;;;;;6.39;62.58;100469.06;5070435;28;20024;-50
2022/02/15 07:02:15;;;;;;;36.70;19.85;;;;;;;6.81;60.27;100465.59;5069754;28;20036;-52
2022/02/15 07:04:40;;;;;;;39.65;21.85;;;;;;;6.59;59.83;100462.56;5068680;28;20020;-52
2022/02/15 07:07:06;;;;;;;41.17;22.67;;;;;;;6.77;59.95;100458.97;5069402;28;20044;-49
2022/02/15 07:09:32;;;;;;;40.72;22.95;;;;;;;6.77;59.37;100464.25;5069076;28;20017;-51
2022/02/15 07:11:57;;;;;;;38.35;21.58;;;;;;;7.01;59.75;100463.50;5069048;28;20024;-49
2022/02/15 07:14:23;;;;;;;35.20;20.50;;;;;;;7.29;58.31;100458.75;5069470;28;20021;-52
2022/02/15 07:16:48;;;;;;;35.50;19.83;;;;;;;7.43;58.43;100449.31;5069547;28;20098;-51
2022/02/15 07:19:14;;;;;;;39.97;21.67;;;;;;;7.40;58.44;100445.16;5069058;28;20595;-50
2022/02/15 07:21:39;;;;;;;30.90;18.23;;;;;;;7.77;57.80;100451.75;5069324;28;20034;-49
2022/02/15 07:24:05;;;;;;;37.13;20.40;;;;;;;7.86;57.06;100455.22;5069383;28;20103;-52
2022/02/15 07:26:31;;;;;;;35.55;20.50;;;;;;;7.82;57.55;100464.50;5070368;28;20035;-52
2022/02/15 07:28:57;;;;;;;32.63;19.63;;;;;;;7.88;56.93;100466.50;5070366;28;20112;-49
2022/02/15 07:31:22;;;;;;;34.95;19.98;;;;;;;7.85;56.93;100469.47;5070598;28;20067;-50
2022/02/15 07:33:48;;;;;;;33.92;19.45;;;;;;;9.03;54.30;100473.22;5070009;28;20024;-49
2022/02/15 07:36:13;;;;;;;32.42;20.08;;;;;;;9.14;52.85;100473.63;5070457;28;20055;-52
2022/02/15 07:38:39;;;;;;;32.50;18.75;;;;;;;8.82;53.90;100469.34;5070170;28;20024;-51
2022/02/15 07:41:05;;;;;;;32.10;19.80;;;;;;;8.90;53.78;100465.81;5069755;28;20035;-49
2022/02/15 07:43:31;;;;;;;32.17;18.60;;;;;;;8.84;53.25;100446.09;5067980;28;20029;-49
2022/02/15 07:45:56;;;;;;;35.92;19.88;;;;;;;9.00;53.02;100446.03;5069592;28;20124;-50
2022/02/15 07:48:22;;;;;;;32.03;19.52;;;;;;;9.32;52.51;100449.44;5069870;28;20556;-51
2022/02/15 07:50:47;;;;;;;30.95;18.98;;;;;;;9.15;52.95;100448.72;5069612;28;20381;-50
2022/02/15 07:53:14;;;;;;;33.50;20.40;;;;;;;8.88;52.73;100455.38;5069585;28;20024;-49
2022/02/15 07:55:39;;;;;;;32.67;19.50;;;;;;;9.03;52.68;100454.63;5070081;28;20037;-49
2022/02/15 07:58:05;;;;;;;32.60;17.77;;;;;;;9.35;52.47;100454.41;5069950;28;20102;-47
2022/02/15 08:00:30;;;;;;;29.52;18.48;;;;;;;9.24;52.46;100454.81;5074032;28;20503;-49
2022/02/15 08:02:56;;;;;;;33.05;18.75;;;;;;;9.19;52.92;100455.34;5073959;28;20035;-51
2022/02/15 08:05:22;;;;;;;36.75;20.80;;;;;;;9.29;52.45;100447.16;5073921;28;20032;-53
2022/02/15 08:07:51;;;;;;;35.08;19.27;;;;;;;9.40;51.74;100440.56;5073999;28;20425;-51
2022/02/15 08:10:18;;;;;;;34.78;20.10;;;;;;;9.31;51.97;100434.50;5074023;28;20032;-50
2022/02/15 08:12:48;;;;;;;38.45;22.13;;;;;;;9.23;52.48;100434.56;5073732;28;20381;-52
2022/02/15 08:15:16;;;;;;;32.55;19.48;;;;;;;9.41;51.80;100436.09;5073786;28;20404;-49
2022/02/15 08:17:42;;;;;;;35.90;18.75;;;;;;;9.30;52.81;100450.63;5073670;28;20028;-48
2022/02/15 08:20:08;;;;;;;36.22;20.45;;;;;;;9.42;52.52;100443.88;5073370;28;20086;-48
2022/02/15 08:22:34;;;;;;;33.85;20.02;;;;;;;9.73;51.53;100442.97;5073664;28;20048;-51
2022/02/15 08:24:59;;;;;;;42.63;22.13;;;;;;;10.01;50.45;100442.31;5073430;28;20532;-53
2022/02/15 08:27:25;;;;;;;33.45;20.52;;;;;;;10.41;49.46;100441.06;5072985;28;20013;-49
2022/02/15 08:29:50;;;;;;;38.72;20.80;;;;;;;10.47;49.46;100443.00;5070976;28;20032;-52
2022/02/15 08:32:16;;;;;;;39.15;20.88;;;;;;;10.26;50.17;100448.19;5070611;28;20471;-49
2022/02/15 08:34:41;;;;;;;33.65;20.98;;;;;;;10.42;50.12;100441.91;5069452;28;20020;-52
2022/02/15 08:37:07;;;;;;;37.70;21.55;;;;;;;10.61;49.63;100437.84;5071869;28;20036;-50
2022/02/15 08:39:32;;;;;;;35.97;22.08;;;;;;;10.99;48.96;100434.97;5072388;28;20047;-50
2022/02/15 08:42:04;;;;;;;33.60;20.92;;;;;;;10.67;48.56;100445.06;5069654;28;20024;-51
2022/02/15 08:44:34;;;;;;;33.65;20.75;;;;;;;10.85;49.04;100444.66;5072609;28;20024;-49
2022/02/15 08:47:00;;;;;;;34.47;20.58;;;;;;;10.99;48.57;100448.31;5070026;28;20020;-50
2022/02/15 08:49:26;;;;;;;31.90;20.00;;;;;;;10.79;48.27;100440.91;5070798;28;20016;-51
2022/02/15 08:51:52;;;;;;;30.85;19.73;;;;;;;10.66;49.45;100438.09;5071845;28;20504;-49
2022/02/15 08:54:17;;;;;;;33.13;18.92;;;;;;;10.68;48.76;100444.88;5071658;28;20032;-50
2022/02/15 08:56:43;;;;;;;33.67;18.98;;;;;;;10.72;48.30;100432.84;5069275;28;20039;-52
2022/02/15 08:59:08;;;;;;;34.30;20.10;;;;;;;10.61;49.41;100435.19;5071693;28;20395;-52
2022/02/15 09:01:34;;;;;;;33.35;21.00;;;;;;;10.75;49.23;100431.63;5072050;28;20027;-51
2022/02/15 09:03:59;;;;;;;33.10;20.02;;;;;;;10.77;48.39;100424.28;5070211;28;20755;-50
2022/02/15 09:06:26;;;;;;;35.20;20.30;;;;;;;10.81;49.19;100422.91;5070834;28;20404;-49
2022/02/15 09:08:51;;;;;;;31.08;20.15;;;;;;;10.76;49.26;100427.97;5071964;28;20036;-49
2022/02/15 09:11:17;;;;;;;34.35;20.25;;;;;;;11.03;47.95;100420.28;5071021;28;20522;-50
2022/02/15 09:13:42;;;;;;;32.83;20.67;;;;;;;10.77;48.45;100424.28;5071785;28;20048;-48
2022/02/15 09:16:08;;;;;;;33.55;20.60;;;;;;;11.21;47.34;100430.47;5071227;28;20028;-48
2022/02/15 09:18:34;;;;;;;30.92;19.23;;;;;;;11.50;47.29;100419.66;5072130;28;20031;-48
2022/02/15 09:20:59;;;;;;;31.50;19.05;;;;;;;11.03;48.09;100425.59;5071488;28;20031;-50
2022/02/15 09:23:25;;;;;;;30.98;18.60;;;;;;;11.08;48.26;100416.03;5070075;28;20098;-49
2022/02/15 09:25:50;;;;;;;30.63;18.42;;;;;;;11.38;46.54;100421.19;5069740;28;20028;-53
2022/02/15 09:28:15;;;;;;;32.03;18.75;;;;;;;11.44;46.61;100420.44;5071088;28;20431;-50
2022/02/15 09:30:41;;;;;;;30.23;18.35;;;;;;;11.30;47.56;100414.16;5071721;28;20032;-50
2022/02/15 09:33:06;;;;;;;36.35;19.17;;;;;;;11.06;47.60;100410.06;5071935;28;20039;-50
2022/02/15 09:35:32;;;;;;;28.00;18.45;;;;;;;11.04;48.03;100412.09;5072053;28;20036;-49
2022/02/15 09:37:57;;;;;;;33.80;18.98;;;;;;;11.17;47.78;100400.72;5071901;28;20028;-49
2022/02/15 09:40:23;;;;;;;29.65;18.02;;;;;;;11.40;46.64;100397.03;5069180;28;20136;-49
2022/02/15 09:42:48;;;;;;;28.50;17.02;;;;;;;11.48;46.32;100404.88;5071477;28;20087;-51
2022/02/15 09:45:14;;;;;;;25.42;16.23;;;;;;;11.29;46.65;100403.69;5071995;28;20028;-51
2022/02/15 09:47:42;;;;;;;29.83;16.45;;;;;;;11.09;47.01;100401.69;5071827;28;20036;-49
2022/02/15 09:50:08;;;;;;;25.52;15.90;;;;;;;11.27;46.62;100403.91;5071499;28;20016;-49
2022/02/15 09:52:33;;;;;;;29.10;17.70;;;;;;;11.03;46.81;100385.66;5071563;28;20047;-50
2022/02/15 09:55:00;;;;;;;30.40;16.63;;;;;;;11.02;47.42;100387.47;5071370;28;20111;-48
2022/02/15 09:57:25;;;;;;;30.50;16.33;;;;;;;11.03;46.25;100388.31;5071261;28;20480;-49
2022/02/15 09:59:51;;;;;;;26.95;17.17;;;;;;;11.20;47.17;100388.88;5071185;28;20053;-50
2022/02/15 10:02:19;;;;;;;28.48;16.95;;;;;;;11.24;46.37;100387.47;5071046;28;20025;-50
2022/02/15 10:04:44;;;;;;;28.65;17.13;;;;;;;11.57;46.53;100389.56;5069891;28;20036;-49
2022/02/15 10:07:12;;;;;;;32.17;17.92;;;;;;;11.32;46.05;100374.00;5071439;28;20055;-50
2022/02/15 10:09:37;;;;;;;28.48;17.85;;;;;;;10.66;48.31;100358.22;5071194;28;20310;-47
2022/02/15 10:12:06;;;;;;;30.00;17.05;;;;;;;11.07;46.40;100363.75;5071473;28;20024;-49
2022/02/15 10:14:34;;;;;;;30.75;18.05;;;;;;;11.39;45.94;100366.06;5071133;28;20029;-48
2022/02/15 10:16:59;;;;;;;28.95;17.08;;;;;;;10.81;47.01;100359.00;5069948;28;20102;-50
2022/02/15 10:19:27;;;;;;;30.88;16.85;;;;;;;10.43;48.79;100353.88;5071017;28;20481;-50
2022/02/15 10:21:54;;;;;;;30.95;16.08;;;;;;;11.23;45.98;100349.34;5069893;28;20105;-48
2022/02/15 10:24:21;;;;;;;27.80;16.77;;;;;;;11.19;46.68;100345.41;5071278;28;20039;-49
2022/02/15 10:27:03;;;;;;;31.33;17.58;;;;;;;11.29;46.38;100340.59;5071277;28;20029;-51
2022/02/15 10:29:30;;;;;;;29.73;17.30;;;;;;;11.49;46.56;100342.56;5071412;28;20404;-49
2022/02/15 10:32:26;;;;;;;29.33;17.35;;;;;;;11.80;45.58;100330.63;5070000;28;20526;-50
2022/02/15 10:34:53;;;;;;;29.90;17.83;;;;;;;11.84;44.58;100323.88;5062420;28;20064;-48
2022/02/15 10:37:20;;;;;;;29.23;17.67;;;;;;;11.69;45.47;100316.00;5071160;28;20097;-48
2022/02/15 10:39:52;;;;;;;30.02;17.70;;;;;;;11.92;45.17;100305.91;5071197;28;20032;-48
2022/02/15 10:42:23;;;;;;;29.90;17.65;;;;;;;11.54;46.07;100300.16;5070808;28;20040;-49
2022/02/15 10:44:59;;;;;;;31.88;17.20;;;;;;;11.55;46.39;100307.13;5070659;28;20033;-51
2022/02/15 10:47:32;;;;;;;26.40;17.13;;;;;;;11.57;45.92;100313.06;5070499;28;20488;-48
2022/02/15 10:50:16;;;;;;;28.15;17.67;;;;;;;11.69;45.02;100303.53;5070791;28;20032;-49
2022/02/15 10:52:41;;;;;;;33.80;18.50;;;;;;;11.61;45.30;100298.34;5070682;28;20043;-50
2022/02/15 10:55:07;;;;;;;30.27;18.63;;;;;;;11.61;45.21;100290.34;5070081;28;20102;-49
2022/02/15 10:57:33;;;;;;;31.05;17.60;;;;;;;11.71;45.91;100285.47;5070778;28;20028;-48
2022/02/15 10:59:59;;;;;;;32.92;18.38;;;;;;;11.83;44.91;100288.41;5069398;28;20033;-48
2022/02/15 11:02:26;;;;;;;32.75;17.80;;;;;;;11.91;44.19;100280.25;5069670;28;20020;-49
2022/02/15 11:04:56;;;;;;;28.95;16.77;;;;;;;11.65;44.74;100280.09;5070904;28;20037;-49
2022/02/15 11:07:28;;;;;;;;;;;;;;;11.85;44.76;100270.38;5070814;28;20434;-49
2022/02/15 11:09:58;;;;;;;28.13;17.17;;;;;;;11.93;45.00;100274.72;5070529;28;19915;-48
2022/02/15 11:12:28;;;;;;;29.45;17.15;;;;;;;12.29;44.26;100262.94;5068874;28;20170;-48
2022/02/15 11:14:58;;;;;;;26.75;17.60;;;;;;;12.40;44.07;100264.22;5068859;28;20048;-48
2022/02/15 11:17:26;;;;;;;28.02;17.00;;;;;;;11.97;44.44;100269.81;5070541;28;20052;-48